Time;durP1;ratioP1;P1;durP2;ratioP2;P2;SDS_P1;SDS_P2;PMS_P1;PMS_P2;Temp;Humidity;BMP_temperature;BMP_pressure;BME280_temperature;BME280_humidity;BME280_pressure;Samples;Min_cycle;Max_cycle;Signal;HPM_P1;HPM_P2
2024/02/26 00:00:11;;;;;;;7.97;1.67;;;;;;;;;;5047347;28;20104;-34
2024/02/26 00:02:40;;;;;;;13.70;1.98;;;;;;;;;;5033849;28;20116;-35
2024/02/26 00:05:07;;;;;;;9.50;2.05;;;;;;;;;;5043575;28;20387;-35
2024/02/26 00:07:34;;;;;;;11.57;1.88;;;;;;;;;;5034302;28;20033;-33
2024/02/26 00:10:01;;;;;;;9.07;1.90;;;;;;;;;;5058114;28;20036;-37
2024/02/26 00:12:31;;;;;;;6.43;1.90;;;;;;;;;;5061998;28;20040;-33
2024/02/26 00:14:58;;;;;;;7.65;1.65;;;;;;;;;;5048718;28;20021;-37
2024/02/26 00:17:25;;;;;;;9.63;2.00;;;;;;;;;;5039328;28;20096;-33
2024/02/26 00:19:53;;;;;;;13.43;2.50;;;;;;;;;;5043162;28;20083;-34
2024/02/26 00:22:21;;;;;;;13.52;2.67;;;;;;;;;;5060639;28;20029;-33
2024/02/26 00:24:48;;;;;;;17.17;3.03;;;;;;;;;;5051519;28;20033;-34
2024/02/26 00:27:16;;;;;;;16.35;2.70;;;;;;;;;;5057871;28;20035;-34
2024/02/26 00:29:42;;;;;;;18.40;2.67;;;;;;;;;;5039710;28;20731;-34
2024/02/26 00:32:10;;;;;;;16.20;3.03;;;;;;;;;;5044814;28;20033;-33
2024/02/26 00:34:37;;;;;;;12.38;3.13;;;;;;;;;;5053388;28;20498;-33
2024/02/26 00:37:03;;;;;;;10.27;3.33;;;;;;;;;;5052496;28;20036;-37
2024/02/26 00:39:30;;;;;;;15.35;3.72;;;;;;;;;;5058980;28;20507;-34
2024/02/26 00:41:58;;;;;;;39.22;9.13;;;;;;;;;;5052895;28;20025;-35
2024/02/26 00:44:26;;;;;;;37.72;9.98;;;;;;;;;;5063910;28;20048;-34
2024/02/26 00:46:53;;;;;;;35.05;10.52;;;;;;;;;;5027932;28;20698;-33
2024/02/26 00:49:20;;;;;;;27.33;8.48;;;;;;;;;;5061383;28;20032;-33
2024/02/26 00:51:47;;;;;;;26.48;6.78;;;;;;;;;;5071071;28;20032;-34
2024/02/26 00:54:14;;;;;;;22.42;5.32;;;;;;;;;;5070224;28;20029;-35
2024/02/26 00:56:41;;;;;;;14.57;4.18;;;;;;;;;;5071091;28;20103;-36
2024/02/26 00:59:08;;;;;;;9.88;3.40;;;;;;;;;;5056699;28;20024;-37
2024/02/26 01:01:35;;;;;;;17.85;3.30;;;;;;;;;;5070938;28;20021;-34
2024/02/26 01:04:03;;;;;;;11.80;2.60;;;;;;;;;;5056091;28;20036;-34
2024/02/26 01:06:30;;;;;;;11.40;2.58;;;;;;;;;;5070929;28;20047;-35
2024/02/26 01:08:57;;;;;;;13.18;2.42;;;;;;;;;;5069994;28;20382;-35
2024/02/26 01:11:24;;;;;;;10.77;2.47;;;;;;;;;;5052486;28;20059;-34
2024/02/26 01:13:56;;;;;;;6.78;2.15;;;;;;;;;;5056787;28;20110;-38
2024/02/26 01:16:23;;;;;;;7.03;2.33;;;;;;;;;;5070301;28;20032;-34
2024/02/26 01:18:50;;;;;;;7.05;1.92;;;;;;;;;;5044247;28;20428;-34
2024/02/26 01:21:17;;;;;;;10.63;2.50;;;;;;;;;;5044537;28;20033;-37
2024/02/26 01:23:44;;;;;;;9.93;2.38;;;;;;;;;;5061307;28;20024;-34
2024/02/26 01:26:12;;;;;;;8.65;2.20;;;;;;;;;;5056023;28;20057;-34
2024/02/26 01:28:39;;;;;;;10.57;2.40;;;;;;;;;;5061492;28;20029;-36
2024/02/26 01:31:08;;;;;;;8.45;2.33;;;;;;;;;;5068016;28;20033;-36
2024/02/26 01:33:35;;;;;;;7.70;2.00;;;;;;;;;;5067748;28;20043;-33
2024/02/26 01:36:02;;;;;;;10.13;2.20;;;;;;;;;;5062909;28;20513;-33
2024/02/26 01:38:29;;;;;;;10.30;2.13;;;;;;;;;;5066561;28;20032;-37
2024/02/26 01:40:56;;;;;;;9.95;2.03;;;;;;;;;;5064423;28;20033;-34
2024/02/26 01:43:23;;;;;;;13.20;2.08;;;;;;;;;;5064035;28;20430;-35
2024/02/26 01:45:50;;;;;;;10.07;2.45;;;;;;;;;;5060658;28;20542;-38
2024/02/26 01:48:17;;;;;;;12.70;2.35;;;;;;;;;;5054054;28;20059;-34
2024/02/26 01:50:45;;;;;;;9.48;2.05;;;;;;;;;;5051736;28;20033;-40
2024/02/26 01:53:12;;;;;;;5.82;1.77;;;;;;;;;;5053048;28;20055;-34
2024/02/26 01:55:39;;;;;;;7.95;1.83;;;;;;;;;;5044990;28;20026;-34
2024/02/26 01:58:06;;;;;;;5.28;1.77;;;;;;;;;;5044042;28;20037;-34
2024/02/26 02:00:33;;;;;;;4.90;1.73;;;;;;;;;;5045940;28;20098;-35
2024/02/26 02:03:01;;;;;;;6.70;1.45;;;;;;;;;;5050344;28;20064;-34
2024/02/26 02:05:28;;;;;;;10.27;2.15;;;;;;;;;;5049109;28;20079;-36
2024/02/26 02:07:55;;;;;;;8.73;1.75;;;;;;;;;;5045434;28;20524;-35
2024/02/26 02:10:25;;;;;;;11.10;1.90;;;;;;;;;;5051726;28;20515;-35
2024/02/26 02:12:52;;;;;;;9.85;1.67;;;;;;;;;;5060188;28;20494;-33
2024/02/26 02:15:20;;;;;;;8.20;1.88;;;;;;;;;;5041019;28;20021;-37
2024/02/26 02:17:50;;;;;;;9.98;1.85;;;;;;;;;;5053547;28;20087;-33
2024/02/26 02:20:18;;;;;;;7.60;1.83;;;;;;;;;;5036729;28;20017;-34
2024/02/26 02:22:48;;;;;;;7.20;1.95;;;;;;;;;;5026691;28;20029;-34
2024/02/26 02:25:15;;;;;;;8.05;1.83;;;;;;;;;;5035610;28;20098;-33
2024/02/26 02:27:42;;;;;;;4.80;1.73;;;;;;;;;;5042393;28;20032;-34
2024/02/26 02:30:10;;;;;;;6.28;2.08;;;;;;;;;;5065510;28;20387;-34
2024/02/26 02:32:38;;;;;;;6.57;1.80;;;;;;;;;;5068892;28;20032;-35
2024/02/26 02:35:05;;;;;;;6.28;1.80;;;;;;;;;;5063421;28;20023;-34
2024/02/26 02:37:32;;;;;;;10.75;1.80;;;;;;;;;;5051610;28;20025;-36
2024/02/26 02:39:59;;;;;;;10.10;1.48;;;;;;;;;;5056539;28;20056;-33
2024/02/26 02:42:27;;;;;;;7.88;1.83;;;;;;;;;;5063141;28;20103;-33
2024/02/26 02:44:54;;;;;;;6.78;1.67;;;;;;;;;;5073104;28;20024;-34
2024/02/26 02:47:21;;;;;;;4.95;1.90;;;;;;;;;;5073396;28;20024;-37
2024/02/26 02:49:48;;;;;;;7.60;1.60;;;;;;;;;;5071146;28;20039;-36
2024/02/26 02:52:15;;;;;;;5.78;1.85;;;;;;;;;;5060640;28;20024;-34
2024/02/26 02:54:42;;;;;;;4.32;1.20;;;;;;;;;;5064684;28;20029;-33
2024/02/26 02:57:12;;;;;;;10.07;1.63;;;;;;;;;;5065801;28;20036;-35
2024/02/26 02:59:39;;;;;;;6.10;1.85;;;;;;;;;;5060025;28;20036;-34
2024/02/26 03:02:06;;;;;;;5.82;1.30;;;;;;;;;;5054426;28;20088;-33
2024/02/26 03:04:33;;;;;;;5.70;1.80;;;;;;;;;;5054550;28;20095;-33
2024/02/26 03:07:00;;;;;;;6.85;1.90;;;;;;;;;;5057029;28;20033;-33
2024/02/26 03:09:27;;;;;;;12.40;2.08;;;;;;;;;;5073021;28;20086;-35
2024/02/26 03:11:54;;;;;;;6.35;2.22;;;;;;;;;;5081923;28;20100;-34
2024/02/26 03:14:21;;;;;;;12.80;2.13;;;;;;;;;;5079256;28;20020;-37
2024/02/26 03:16:48;;;;;;;9.32;1.80;;;;;;;;;;5082548;28;20024;-35
2024/02/26 03:19:18;;;;;;;8.43;1.88;;;;;;;;;;5083512;28;20032;-36
2024/02/26 03:21:45;;;;;;;5.88;1.65;;;;;;;;;;5081215;28;20016;-33
2024/02/26 03:24:13;;;;;;;7.53;1.90;;;;;;;;;;5083056;28;20032;-34
2024/02/26 03:26:39;;;;;;;8.30;1.88;;;;;;;;;;5081410;28;20426;-35
2024/02/26 03:29:06;;;;;;;8.70;2.20;;;;;;;;;;5082522;28;20024;-33
2024/02/26 03:31:33;;;;;;;4.32;1.77;;;;;;;;;;5083842;28;20107;-33
2024/02/26 03:34:00;;;;;;;6.25;1.98;;;;;;;;;;5081988;28;20032;-32
2024/02/26 03:36:28;;;;;;;5.03;1.77;;;;;;;;;;5082781;28;20024;-33
2024/02/26 03:38:55;;;;;;;5.38;1.75;;;;;;;;;;5075782;28;20805;-34
2024/02/26 03:41:22;;;;;;;4.28;1.83;;;;;;;;;;5077601;28;20024;-33
2024/02/26 03:43:49;;;;;;;8.30;2.22;;;;;;;;;;5077705;28;20482;-33
2024/02/26 03:46:16;;;;;;;6.68;1.77;;;;;;;;;;5082729;28;20036;-36
2024/02/26 03:48:43;;;;;;;7.90;2.20;;;;;;;;;;5081111;28;20028;-34
2024/02/26 03:51:10;;;;;;;5.28;1.70;;;;;;;;;;5081599;28;20043;-34
2024/02/26 03:53:37;;;;;;;9.88;2.13;;;;;;;;;;5082138;28;20107;-35
2024/02/26 03:56:05;;;;;;;6.13;1.95;;;;;;;;;;5081427;28;20024;-34
2024/02/26 03:58:32;;;;;;;4.22;1.40;;;;;;;;;;5077732;28;20033;-33
2024/02/26 04:01:00;;;;;;;6.93;2.00;;;;;;;;;;5080640;28;20035;-32
2024/02/26 04:03:27;;;;;;;6.85;2.00;;;;;;;;;;5081658;28;20027;-33
2024/02/26 04:05:54;;;;;;;8.07;2.10;;;;;;;;;;5082636;28;20056;-34
2024/02/26 04:08:21;;;;;;;5.95;1.98;;;;;;;;;;5080662;28;20017;-33
2024/02/26 04:10:47;;;;;;;9.15;1.73;;;;;;;;;;5078803;28;20039;-32
2024/02/26 04:13:14;;;;;;;6.68;2.03;;;;;;;;;;5074726;28;20056;-35
2024/02/26 04:15:41;;;;;;;6.03;2.20;;;;;;;;;;5078012;28;20067;-33
2024/02/26 04:18:08;;;;;;;4.40;2.03;;;;;;;;;;5081566;28;20486;-32
2024/02/26 04:20:35;;;;;;;7.25;2.05;;;;;;;;;;5082419;28;20024;-34
2024/02/26 04:23:03;;;;;;;7.13;1.85;;;;;;;;;;5078111;28;20024;-33
2024/02/26 04:25:30;;;;;;;4.88;1.40;;;;;;;;;;5081120;28;20031;-33
2024/02/26 04:27:57;;;;;;;5.25;1.50;;;;;;;;;;5082390;28;20043;-35
2024/02/26 04:30:24;;;;;;;5.13;1.83;;;;;;;;;;5079685;28;20454;-34
2024/02/26 04:32:51;;;;;;;5.00;2.08;;;;;;;;;;5080169;28;20056;-34
2024/02/26 04:35:18;;;;;;;4.07;1.48;;;;;;;;;;5088101;28;20028;-34
2024/02/26 04:37:45;;;;;;;8.23;1.80;;;;;;;;;;5069422;28;20063;-34
2024/02/26 04:40:12;;;;;;;6.70;1.77;;;;;;;;;;5060901;28;20049;-33
2024/02/26 04:42:39;;;;;;;5.93;1.85;;;;;;;;;;5060092;28;20025;-35
2024/02/26 04:45:08;;;;;;;6.32;1.95;;;;;;;;;;5061683;28;20056;-33
2024/02/26 04:47:35;;;;;;;5.32;2.03;;;;;;;;;;5061631;28;20033;-33
2024/02/26 04:50:02;;;;;;;6.13;1.85;;;;;;;;;;5059661;28;20040;-33
2024/02/26 04:52:29;;;;;;;4.53;1.65;;;;;;;;;;5061284;28;20147;-34
2024/02/26 04:54:56;;;;;;;3.05;1.33;;;;;;;;;;5059275;28;20025;-35
2024/02/26 04:57:23;;;;;;;5.55;1.60;;;;;;;;;;5051481;28;20029;-32
2024/02/26 04:59:50;;;;;;;6.20;1.88;;;;;;;;;;5065292;28;20035;-33
2024/02/26 05:02:17;;;;;;;3.47;1.58;;;;;;;;;;5071526;28;20025;-33
2024/02/26 05:04:44;;;;;;;5.07;1.65;;;;;;;;;;5071468;28;20032;-33
2024/02/26 05:07:12;;;;;;;4.40;1.42;;;;;;;;;;5071389;28;20490;-34
2024/02/26 05:09:39;;;;;;;6.40;1.80;;;;;;;;;;5071167;28;20108;-33
2024/02/26 05:12:06;;;;;;;5.60;1.85;;;;;;;;;;5071301;28;20405;-36
2024/02/26 05:14:33;;;;;;;7.10;1.90;;;;;;;;;;5071437;28;20032;-32
2024/02/26 05:17:00;;;;;;;4.38;1.63;;;;;;;;;;5071429;28;20020;-33
2024/02/26 05:19:26;;;;;;;4.72;1.60;;;;;;;;;;5071276;28;20024;-34
2024/02/26 05:21:54;;;;;;;5.43;2.00;;;;;;;;;;5071371;28;20016;-33
2024/02/26 05:24:22;;;;;;;3.15;1.42;;;;;;;;;;5071128;28;20028;-35
2024/02/26 05:26:49;;;;;;;4.55;1.40;;;;;;;;;;5071184;28;20024;-33
2024/02/26 05:29:16;;;;;;;4.75;1.67;;;;;;;;;;5053015;28;20428;-33
2024/02/26 05:31:43;;;;;;;5.00;1.52;;;;;;;;;;5071464;28;20574;-33
2024/02/26 05:34:10;;;;;;;5.47;1.50;;;;;;;;;;5071093;28;20471;-33
2024/02/26 05:36:38;;;;;;;5.53;1.70;;;;;;;;;;5070963;28;20024;-33
2024/02/26 05:39:05;;;;;;;5.38;1.58;;;;;;;;;;5070736;28;20060;-34
2024/02/26 05:41:32;;;;;;;5.65;1.60;;;;;;;;;;5071101;28;20058;-35
2024/02/26 05:43:59;;;;;;;3.97;1.70;;;;;;;;;;5071803;28;20095;-32
2024/02/26 05:46:27;;;;;;;7.85;1.58;;;;;;;;;;5074977;28;20086;-34
2024/02/26 05:48:54;;;;;;;3.65;1.30;;;;;;;;;;5074841;28;20162;-33
2024/02/26 05:51:21;;;;;;;6.15;2.00;;;;;;;;;;5074920;28;20024;-33
2024/02/26 05:53:53;;;;;;;5.47;1.75;;;;;;;;;;5074952;28;20035;-32
2024/02/26 05:56:19;;;;;;;;;;;;;;;;;;5075154;28;20028;-37
2024/02/26 05:58:47;;;;;;;5.30;1.80;;;;;;;;;;5068289;28;19916;-33
2024/02/26 06:01:17;;;;;;;4.95;1.75;;;;;;;;;;5073120;28;20479;-33
2024/02/26 06:03:44;;;;;;;4.18;1.48;;;;;;;;;;5074705;28;20099;-33
2024/02/26 06:06:12;;;;;;;3.72;1.35;;;;;;;;;;5056871;28;20028;-33
2024/02/26 06:08:39;;;;;;;3.47;1.50;;;;;;;;;;5074501;28;20029;-33
2024/02/26 06:11:07;;;;;;;5.63;1.58;;;;;;;;;;5074400;28;20055;-33
2024/02/26 06:13:35;;;;;;;4.30;1.50;;;;;;;;;;5074518;28;20103;-34
2024/02/26 06:16:02;;;;;;;4.75;1.60;;;;;;;;;;5074514;28;20108;-32
2024/02/26 06:18:29;;;;;;;5.07;1.70;;;;;;;;;;5074472;28;20482;-33
2024/02/26 06:20:56;;;;;;;5.05;2.00;;;;;;;;;;5074353;28;20029;-34
2024/02/26 06:23:24;;;;;;;6.88;1.98;;;;;;;;;;5074220;28;20035;-33
2024/02/26 06:25:51;;;;;;;5.40;1.75;;;;;;;;;;5074299;28;20028;-33
2024/02/26 06:28:18;;;;;;;4.45;1.90;;;;;;;;;;5074314;28;20025;-32
2024/02/26 06:30:46;;;;;;;4.82;1.73;;;;;;;;;;5074011;28;20032;-32
2024/02/26 06:33:14;;;;;;;6.28;1.73;;;;;;;;;;5074065;28;20025;-32
2024/02/26 06:35:41;;;;;;;5.10;1.83;;;;;;;;;;5073957;28;20036;-32
2024/02/26 06:38:09;;;;;;;5.78;1.63;;;;;;;;;;5074139;28;20036;-35
2024/02/26 06:40:36;;;;;;;5.18;1.70;;;;;;;;;;5073708;28;20555;-33
2024/02/26 06:43:03;;;;;;;4.88;1.80;;;;;;;;;;5074078;28;20016;-35
2024/02/26 06:45:30;;;;;;;4.95;1.55;;;;;;;;;;5074022;28;20473;-35
2024/02/26 06:47:57;;;;;;;5.32;1.88;;;;;;;;;;5073999;28;20060;-32
2024/02/26 06:50:24;;;;;;;5.20;1.50;;;;;;;;;;5073721;28;20036;-33
2024/02/26 06:52:51;;;;;;;4.90;1.42;;;;;;;;;;5073807;28;20020;-35
2024/02/26 06:55:18;;;;;;;5.90;1.63;;;;;;;;;;5073215;28;20375;-32
2024/02/26 06:57:45;;;;;;;4.88;1.73;;;;;;;;;;5073321;28;20029;-34
2024/02/26 07:00:14;;;;;;;4.05;1.50;;;;;;;;;;5073590;28;20032;-34
2024/02/26 07:02:41;;;;;;;5.15;1.50;;;;;;;;;;5073522;28;20103;-32
2024/02/26 07:05:09;;;;;;;5.57;1.70;;;;;;;;;;5073698;28;20025;-35
2024/02/26 07:07:36;;;;;;;3.28;1.40;;;;;;;;;;5073472;28;20032;-33
2024/02/26 07:10:03;;;;;;;6.18;1.70;;;;;;;;;;5073299;28;20057;-32
2024/02/26 07:12:33;;;;;;;6.22;1.80;;;;;;;;;;5073507;28;20032;-35
2024/02/26 07:15:00;;;;;;;5.00;1.85;;;;;;;;;;5073387;28;20025;-34
2024/02/26 07:17:27;;;;;;;6.40;1.90;;;;;;;;;;5073372;28;20017;-34
2024/02/26 07:19:54;;;;;;;5.65;2.05;;;;;;;;;;5073241;28;20035;-32
2024/02/26 07:22:21;;;;;;;4.53;1.77;;;;;;;;;;5073312;28;20028;-33
2024/02/26 07:24:48;;;;;;;5.00;1.63;;;;;;;;;;5073226;28;20023;-32
2024/02/26 07:27:17;;;;;;;5.63;1.67;;;;;;;;;;5073199;28;20028;-32
2024/02/26 07:29:44;;;;;;;4.07;1.55;;;;;;;;;;5072900;28;20036;-33
2024/02/26 07:32:11;;;;;;;4.90;1.65;;;;;;;;;;5055037;28;20406;-32
2024/02/26 07:34:41;;;;;;;3.53;1.33;;;;;;;;;;5073025;28;20028;-34
2024/02/26 07:37:08;;;;;;;5.18;1.98;;;;;;;;;;5072854;28;20032;-34
2024/02/26 07:39:36;;;;;;;3.58;1.50;;;;;;;;;;5072708;28;20052;-34
2024/02/26 07:42:04;;;;;;;4.15;1.55;;;;;;;;;;5072790;28;20114;-33
2024/02/26 07:44:31;;;;;;;5.22;1.65;;;;;;;;;;5072633;28;20032;-33
2024/02/26 07:46:57;;;;;;;5.28;1.88;;;;;;;;;;5072741;28;20031;-32
2024/02/26 07:49:24;;;;;;;4.85;1.77;;;;;;;;;;5072539;28;20039;-32
2024/02/26 07:51:51;;;;;;;4.18;1.60;;;;;;;;;;5072734;28;20040;-32
2024/02/26 07:54:19;;;;;;;3.75;1.30;;;;;;;;;;5072655;28;20029;-33
2024/02/26 07:56:46;;;;;;;3.63;1.33;;;;;;;;;;5054473;28;20035;-33
2024/02/26 07:59:13;;;;;;;6.22;1.90;;;;;;;;;;5072425;28;20020;-32
2024/02/26 08:01:41;;;;;;;4.97;1.58;;;;;;;;;;5072471;28;20032;-33
2024/02/26 08:04:08;;;;;;;3.08;1.35;;;;;;;;;;5072357;28;20551;-34
2024/02/26 08:06:35;;;;;;;4.53;1.27;;;;;;;;;;5072196;28;20474;-32
2024/02/26 08:09:02;;;;;;;5.32;1.67;;;;;;;;;;5072175;28;20495;-33
2024/02/26 08:11:29;;;;;;;8.32;1.77;;;;;;;;;;5072316;28;20036;-32
2024/02/26 08:13:56;;;;;;;4.90;1.60;;;;;;;;;;5072295;28;20029;-33
2024/02/26 08:16:23;;;;;;;5.93;1.75;;;;;;;;;;5072218;28;20032;-32
2024/02/26 08:18:50;;;;;;;7.15;2.05;;;;;;;;;;5072057;28;20055;-33
2024/02/26 08:21:16;;;;;;;5.45;2.05;;;;;;;;;;5072166;28;20029;-32
2024/02/26 08:23:44;;;;;;;4.68;1.70;;;;;;;;;;5072005;28;20074;-32
2024/02/26 08:26:11;;;;;;;4.00;1.52;;;;;;;;;;5072038;28;20089;-36
2024/02/26 08:28:39;;;;;;;4.65;1.50;;;;;;;;;;5071973;28;20035;-32
2024/02/26 08:31:06;;;;;;;5.65;1.60;;;;;;;;;;5071905;28;20039;-32
2024/02/26 08:33:35;;;;;;;3.75;1.77;;;;;;;;;;5071841;28;20044;-33
2024/02/26 08:36:05;;;;;;;4.13;1.60;;;;;;;;;;5071743;28;20068;-32
2024/02/26 08:38:34;;;;;;;6.03;2.10;;;;;;;;;;5071617;28;20032;-33
2024/02/26 08:41:05;;;;;;;6.03;1.60;;;;;;;;;;5071620;28;20044;-33
2024/02/26 08:43:32;;;;;;;5.55;1.92;;;;;;;;;;5071779;28;20043;-33
2024/02/26 08:45:59;;;;;;;5.53;1.75;;;;;;;;;;5071799;28;20024;-33
2024/02/26 08:48:25;;;;;;;5.50;1.67;;;;;;;;;;5071668;28;20028;-32
2024/02/26 08:50:52;;;;;;;7.93;2.10;;;;;;;;;;5071393;28;20501;-32
2024/02/26 08:53:20;;;;;;;9.25;2.15;;;;;;;;;;5071650;28;20033;-34
2024/02/26 08:55:47;;;;;;;4.65;1.58;;;;;;;;;;5071632;28;20060;-35
2024/02/26 08:58:14;;;;;;;4.82;1.60;;;;;;;;;;5071635;28;20024;-32
2024/02/26 09:00:41;;;;;;;6.18;2.17;;;;;;;;;;5071212;28;20027;-33
2024/02/26 09:03:08;;;;;;;4.55;1.73;;;;;;;;;;5071513;28;20032;-35
2024/02/26 09:05:35;;;;;;;5.05;1.70;;;;;;;;;;5071567;28;20502;-32
2024/02/26 09:08:02;;;;;;;6.95;1.90;;;;;;;;;;5071541;28;20044;-32
2024/02/26 09:10:29;;;;;;;5.75;2.15;;;;;;;;;;5071357;28;20475;-32
2024/02/26 09:12:56;;;;;;;6.57;1.90;;;;;;;;;;5071353;28;20074;-35
2024/02/26 09:15:23;;;;;;;5.72;1.88;;;;;;;;;;5071441;28;20043;-33
2024/02/26 09:17:50;;;;;;;5.68;1.95;;;;;;;;;;5071428;28;20020;-32
2024/02/26 09:20:21;;;;;;;6.68;2.20;;;;;;;;;;5074231;28;20031;-32
2024/02/26 09:22:48;;;;;;;4.93;1.80;;;;;;;;;;5075757;28;20060;-33
2024/02/26 09:25:15;;;;;;;6.20;2.05;;;;;;;;;;5075459;28;20032;-33
2024/02/26 09:27:43;;;;;;;5.25;1.80;;;;;;;;;;5075369;28;20036;-34
2024/02/26 09:30:11;;;;;;;5.20;2.05;;;;;;;;;;5075338;28;20035;-32
2024/02/26 09:32:38;;;;;;;9.40;2.03;;;;;;;;;;5075265;28;20039;-33
2024/02/26 09:35:06;;;;;;;9.35;2.15;;;;;;;;;;5075342;28;20052;-33
2024/02/26 09:37:33;;;;;;;6.85;2.28;;;;;;;;;;5075272;28;20769;-32
2024/02/26 09:40:00;;;;;;;5.15;1.77;;;;;;;;;;5075011;28;20100;-32
2024/02/26 09:42:27;;;;;;;5.78;2.00;;;;;;;;;;5075181;28;20103;-33
2024/02/26 09:45:03;;;;;;;6.85;2.13;;;;;;;;;;5075095;28;20035;-33
2024/02/26 09:47:32;;;;;;;7.03;2.05;;;;;;;;;;5075128;28;20028;-35
2024/02/26 09:50:02;;;;;;;4.57;1.70;;;;;;;;;;5074848;28;20028;-33
2024/02/26 09:52:29;;;;;;;7.63;2.20;;;;;;;;;;5074859;28;20501;-33
2024/02/26 09:54:56;;;;;;;6.50;2.13;;;;;;;;;;5074830;28;20447;-35
2024/02/26 09:57:24;;;;;;;7.38;1.67;;;;;;;;;;5074897;28;20036;-35
2024/02/26 09:59:54;;;;;;;8.68;1.73;;;;;;;;;;5074604;28;20479;-32
2024/02/26 10:02:22;;;;;;;6.30;2.00;;;;;;;;;;5074726;28;20061;-32
2024/02/26 10:04:50;;;;;;;5.13;2.08;;;;;;;;;;5074670;28;20558;-33
2024/02/26 10:07:17;;;;;;;5.85;2.05;;;;;;;;;;5074572;28;20033;-32
2024/02/26 10:09:44;;;;;;;7.93;2.10;;;;;;;;;;5072621;28;20041;-33
2024/02/26 10:12:12;;;;;;;6.63;2.20;;;;;;;;;;5074601;28;20016;-32
2024/02/26 10:14:39;;;;;;;9.60;2.90;;;;;;;;;;5056997;28;20496;-33
2024/02/26 10:17:10;;;;;;;7.43;1.98;;;;;;;;;;5063882;28;20495;-32
2024/02/26 10:19:37;;;;;;;6.90;2.42;;;;;;;;;;5074325;28;20032;-36
2024/02/26 10:22:05;;;;;;;8.57;2.22;;;;;;;;;;5074399;28;20031;-34
2024/02/26 10:24:32;;;;;;;6.05;2.20;;;;;;;;;;5056406;28;20044;-32
2024/02/26 10:26:59;;;;;;;5.55;2.10;;;;;;;;;;5074235;28;20773;-35
2024/02/26 10:29:27;;;;;;;6.45;2.28;;;;;;;;;;5061323;28;20033;-33
2024/02/26 10:31:54;;;;;;;7.13;2.10;;;;;;;;;;5065634;28;20042;-32
2024/02/26 10:34:21;;;;;;;8.55;2.40;;;;;;;;;;5074172;28;20066;-32
2024/02/26 10:36:48;;;;;;;6.80;1.88;;;;;;;;;;5055471;28;20493;-35
2024/02/26 10:39:15;;;;;;;6.63;2.47;;;;;;;;;;5053884;28;20049;-32
2024/02/26 10:41:47;;;;;;;6.25;2.20;;;;;;;;;;5053923;28;20098;-33
2024/02/26 10:44:14;;;;;;;5.88;2.13;;;;;;;;;;5063625;28;20470;-34
2024/02/26 10:46:41;;;;;;;11.00;2.60;;;;;;;;;;5055323;28;20063;-32
2024/02/26 10:49:19;;;;;;;11.40;2.50;;;;;;;;;;5070827;28;20039;-33
2024/02/26 10:51:46;;;;;;;7.18;2.40;;;;;;;;;;5071372;28;20032;-33
2024/02/26 10:54:16;;;;;;;6.75;2.30;;;;;;;;;;5073245;28;20164;-33
2024/02/26 10:56:43;;;;;;;20.85;2.75;;;;;;;;;;5073834;28;20052;-34
2024/02/26 10:59:11;;;;;;;17.15;2.72;;;;;;;;;;5069324;28;20502;-32
2024/02/26 11:01:38;;;;;;;10.80;2.50;;;;;;;;;;5062071;28;20078;-33
2024/02/26 11:04:06;;;;;;;14.25;2.65;;;;;;;;;;5045273;28;20482;-34
2024/02/26 11:06:34;;;;;;;9.55;2.38;;;;;;;;;;5061789;28;20454;-33
2024/02/26 11:09:02;;;;;;;10.73;2.38;;;;;;;;;;5063187;28;20032;-33
2024/02/26 11:11:30;;;;;;;14.20;2.70;;;;;;;;;;5063551;28;20060;-32
2024/02/26 11:13:57;;;;;;;7.20;2.40;;;;;;;;;;5061956;28;20036;-35
2024/02/26 11:16:24;;;;;;;8.98;2.30;;;;;;;;;;5062667;28;20090;-33
2024/02/26 11:18:54;;;;;;;7.57;2.40;;;;;;;;;;5063481;28;20041;-34
2024/02/26 11:21:38;;;;;;;6.78;2.22;;;;;;;;;;5061002;28;20020;-36
2024/02/26 11:24:09;;;;;;;8.93;2.65;;;;;;;;;;5053170;28;20383;-33
2024/02/26 11:26:39;;;;;;;6.20;2.00;;;;;;;;;;5053158;28;20391;-33
2024/02/26 11:29:06;;;;;;;9.57;3.00;;;;;;;;;;5052928;28;20805;-33
2024/02/26 11:31:34;;;;;;;5.82;2.08;;;;;;;;;;5054307;28;20041;-34
2024/02/26 11:34:01;;;;;;;7.97;2.30;;;;;;;;;;5071034;28;20044;-32
2024/02/26 11:36:28;;;;;;;9.90;2.53;;;;;;;;;;5036667;28;20112;-32
2024/02/26 11:38:56;;;;;;;10.30;2.22;;;;;;;;;;5071400;22;20037;-32
2024/02/26 11:41:23;;;;;;;10.05;2.28;;;;;;;;;;5048767;28;20064;-41
2024/02/26 11:43:55;;;;;;;5.75;2.08;;;;;;;;;;5051930;28;20032;-34
2024/02/26 11:46:31;;;;;;;10.57;2.35;;;;;;;;;;5051708;28;20037;-37
2024/02/26 11:49:03;;;;;;;7.35;2.10;;;;;;;;;;5052449;28;20060;-38
2024/02/26 11:51:34;;;;;;;10.75;2.00;;;;;;;;;;5049662;28;20029;-46
2024/02/26 11:54:01;;;;;;;8.05;2.20;;;;;;;;;;5051879;28;20359;-37
2024/02/26 11:56:29;;;;;;;9.25;2.38;;;;;;;;;;5051988;28;20074;-42
2024/02/26 11:59:00;;;;;;;12.90;2.10;;;;;;;;;;5051411;28;20028;-32
2024/02/26 12:01:45;;;;;;;10.57;2.35;;;;;;;;;;5039813;28;20035;-35
2024/02/26 12:04:16;;;;;;;6.63;2.17;;;;;;;;;;5042154;28;20029;-36
2024/02/26 12:06:45;;;;;;;9.48;2.00;;;;;;;;;;5049337;28;20024;-36
2024/02/26 12:09:13;;;;;;;6.20;2.03;;;;;;;;;;5050088;28;20021;-42
2024/02/26 12:11:40;;;;;;;8.07;2.15;;;;;;;;;;5051331;28;20039;-41
2024/02/26 12:14:08;;;;;;;5.57;2.00;;;;;;;;;;5049378;28;20036;-35
2024/02/26 12:16:39;;;;;;;8.93;2.20;;;;;;;;;;5046412;28;20025;-44
2024/02/26 12:19:07;;;;;;;9.23;2.00;;;;;;;;;;5048748;28;20033;-37
2024/02/26 12:21:36;;;;;;;9.25;2.40;;;;;;;;;;5051002;28;20096;-45
2024/02/26 12:24:12;;;;;;;7.15;2.10;;;;;;;;;;5046334;28;20383;-43
2024/02/26 12:26:40;;;;;;;9.40;2.38;;;;;;;;;;5049192;28;20028;-34
2024/02/26 12:29:07;;;;;;;7.20;2.22;;;;;;;;;;5048629;28;20494;-39
2024/02/26 12:31:36;;;;;;;8.25;2.20;;;;;;;;;;5051743;28;20124;-41
2024/02/26 12:34:04;;;;;;;10.40;2.58;;;;;;;;;;5050111;28;20036;-45
2024/02/26 12:36:32;;;;;;;10.02;2.25;;;;;;;;;;5050614;28;20597;-42
2024/02/26 12:39:00;;;;;;;10.65;2.38;;;;;;;;;;5047307;28;20466;-45
2024/02/26 12:41:27;;;;;;;10.32;2.42;;;;;;;;;;5027223;28;20045;-41
2024/02/26 12:43:56;;;;;;;11.02;2.30;;;;;;;;;;5030765;28;20470;-41
2024/02/26 12:46:23;;;;;;;8.60;2.53;;;;;;;;;;5028950;28;20091;-39
2024/02/26 12:48:50;;;;;;;12.55;2.50;;;;;;;;;;5029167;28;20026;-37
2024/02/26 12:51:17;;;;;;;8.95;2.50;;;;;;;;;;5026236;28;20166;-43
2024/02/26 12:53:45;;;;;;;9.38;2.28;;;;;;;;;;5029409;28;20108;-34
2024/02/26 12:56:13;;;;;;;10.20;2.50;;;;;;;;;;5030118;28;20032;-41
2024/02/26 12:58:40;;;;;;;15.07;2.47;;;;;;;;;;5031481;28;20133;-37
2024/02/26 13:01:08;;;;;;;13.18;2.50;;;;;;;;;;5031245;28;20100;-40
2024/02/26 13:03:36;;;;;;;16.00;2.60;;;;;;;;;;5026947;28;20029;-36
2024/02/26 13:06:04;;;;;;;12.25;2.28;;;;;;;;;;5029719;28;20541;-34
2024/02/26 13:08:33;;;;;;;9.90;2.15;;;;;;;;;;5031099;28;20024;-35
2024/02/26 13:11:00;;;;;;;13.20;2.38;;;;;;;;;;5031076;28;20440;-36
2024/02/26 13:13:27;;;;;;;14.20;2.63;;;;;;;;;;5031392;28;20097;-38
2024/02/26 13:16:04;;;;;;;13.57;2.80;;;;;;;;;;5026671;28;20026;-40
2024/02/26 13:18:31;;;;;;;16.23;2.63;;;;;;;;;;5029258;28;20021;-41
2024/02/26 13:21:11;;;;;;;13.57;3.22;;;;;;;;;;5030891;28;20037;-31
2024/02/26 13:23:39;;;;;;;11.65;2.90;;;;;;;;;;5031235;28;20030;-32
2024/02/26 13:26:07;;;;;;;12.60;2.75;;;;;;;;;;5029675;28;20499;-35
2024/02/26 13:28:35;;;;;;;16.95;2.53;;;;;;;;;;5026013;28;20609;-40
2024/02/26 13:31:04;;;;;;;10.85;2.20;;;;;;;;;;5030452;28;20115;-37
2024/02/26 13:33:31;;;;;;;8.38;2.70;;;;;;;;;;5030459;28;20033;-36
2024/02/26 13:36:00;;;;;;;13.88;2.50;;;;;;;;;;5025141;28;20033;-41
2024/02/26 13:38:28;;;;;;;10.57;2.95;;;;;;;;;;5027239;28;20026;-35
2024/02/26 13:40:55;;;;;;;11.90;2.55;;;;;;;;;;5043986;28;20517;-37
2024/02/26 13:43:22;;;;;;;10.95;2.53;;;;;;;;;;5050918;28;20032;-40
2024/02/26 13:45:49;;;;;;;13.50;2.63;;;;;;;;;;5050929;28;20056;-35
2024/02/26 13:48:16;;;;;;;8.57;2.72;;;;;;;;;;5050192;28;20398;-40
2024/02/26 13:50:44;;;;;;;13.70;2.70;;;;;;;;;;5046192;28;20545;-36
2024/02/26 13:53:12;;;;;;;9.13;2.63;;;;;;;;;;5049142;28;20033;-43
2024/02/26 13:55:42;;;;;;;15.77;3.00;;;;;;;;;;5050531;28;20033;-38
2024/02/26 13:58:09;;;;;;;13.60;3.03;;;;;;;;;;5050790;28;20506;-36
2024/02/26 14:00:36;;;;;;;14.75;2.78;;;;;;;;;;5047978;28;20091;-42
2024/02/26 14:03:03;;;;;;;12.90;2.92;;;;;;;;;;5046542;28;20108;-45
2024/02/26 14:05:30;;;;;;;14.25;3.03;;;;;;;;;;5051493;28;20036;-40
2024/02/26 14:07:57;;;;;;;11.10;2.83;;;;;;;;;;5054441;28;20021;-40
2024/02/26 14:10:24;;;;;;;9.45;2.15;;;;;;;;;;5052658;28;20498;-35
2024/02/26 14:12:51;;;;;;;9.75;2.42;;;;;;;;;;5054427;28;20032;-42
2024/02/26 14:15:18;;;;;;;12.10;2.58;;;;;;;;;;5049753;28;20414;-36
2024/02/26 14:17:45;;;;;;;12.88;2.42;;;;;;;;;;5054072;28;20386;-33
2024/02/26 14:20:12;;;;;;;15.02;2.83;;;;;;;;;;5054024;28;20043;-38
2024/02/26 14:22:39;;;;;;;13.48;2.33;;;;;;;;;;5052601;28;20021;-39
2024/02/26 14:25:09;;;;;;;18.67;3.08;;;;;;;;;;5053469;28;20029;-36
2024/02/26 14:27:36;;;;;;;13.27;2.75;;;;;;;;;;5048217;28;20395;-36
2024/02/26 14:30:03;;;;;;;15.27;2.50;;;;;;;;;;5052509;28;20061;-38
2024/02/26 14:32:34;;;;;;;11.65;2.97;;;;;;;;;;5051878;28;20554;-35
2024/02/26 14:35:02;;;;;;;16.15;2.20;;;;;;;;;;5050721;28;20465;-33
2024/02/26 14:37:29;;;;;;;10.45;2.67;;;;;;;;;;5052248;28;20056;-42
2024/02/26 14:39:56;;;;;;;11.13;2.40;;;;;;;;;;5047399;28;20578;-44
2024/02/26 14:42:24;;;;;;;5.93;2.22;;;;;;;;;;5050276;28;20092;-43